createdAt,value
2022-09-15T00:10:01.354Z,33.00
2022-09-15T00:20:06.144Z,35.63
2022-09-15T00:30:08.459Z,33.67
2022-09-15T00:40:10.603Z,32.30
2022-09-15T00:50:16.387Z,32.00
2022-09-15T01:00:21.015Z,31.10
2022-09-15T01:10:27.119Z,31.27
2022-09-15T01:20:53.359Z,33.17
2022-09-15T01:31:10.981Z,32.83
2022-09-15T01:41:27.237Z,31.27
2022-09-15T01:51:31.779Z,32.43
2022-09-15T02:02:10.915Z,32.73
2022-09-15T02:12:20.213Z,31.70
2022-09-15T02:22:29.564Z,34.50
2022-09-15T02:32:34.122Z,30.20
2022-09-15T02:42:36.348Z,30.10
2022-09-15T02:52:41.571Z,28.30
2022-09-15T03:02:46.600Z,30.40
2022-09-15T03:12:51.605Z,31.20
2022-09-15T03:22:56.152Z,29.70
2022-09-15T03:32:57.865Z,29.47
2022-09-15T03:42:59.859Z,28.53
2022-09-15T03:53:01.988Z,26.23
2022-09-15T04:03:04.142Z,26.33
2022-09-15T04:13:05.888Z,23.97
2022-09-15T04:23:07.601Z,22.33
2022-09-15T04:33:09.302Z,23.40
2022-09-15T04:43:10.954Z,22.97
2022-09-15T04:53:12.802Z,22.73
2022-09-15T05:03:14.512Z,23.17
2022-09-15T05:13:16.324Z,23.10
2022-09-15T05:23:18.424Z,22.00
2022-09-15T05:33:21.822Z,23.67
2022-09-15T05:43:23.596Z,19.27
2022-09-15T05:53:26.064Z,21.47
2022-09-15T06:03:30.971Z,23.57
2022-09-15T06:13:33.207Z,16.27
2022-09-15T06:23:35.372Z,18.70
2022-09-15T06:33:37.263Z,19.00
2022-09-15T06:43:39.618Z,19.80
2022-09-15T06:53:41.424Z,17.10
2022-09-15T07:03:44.164Z,18.40
2022-09-15T07:13:48.449Z,18.40
2022-09-15T07:23:50.443Z,17.00
2022-09-15T07:33:52.104Z,14.77
2022-09-15T07:43:56.422Z,16.33
2022-09-15T07:53:58.564Z,16.80
2022-09-15T08:04:00.431Z,14.17
2022-09-15T08:14:03.305Z,13.47
2022-09-15T08:24:05.113Z,16.70
2022-09-15T08:34:07.127Z,18.00
2022-09-15T08:44:42.957Z,19.13
2022-09-15T08:54:44.906Z,14.20
2022-09-15T09:04:52.523Z,12.03
2022-09-15T09:14:54.286Z,9.95
2022-09-15T09:24:59.363Z,7.00
2022-09-15T09:35:29.785Z,5.23
2022-09-15T09:45:31.497Z,4.93
2022-09-15T09:55:33.264Z,4.50
2022-09-15T10:05:35.267Z,4.47
2022-09-15T10:15:40.592Z,3.67
2022-09-15T10:25:58.680Z,2.57
2022-09-15T10:36:05.872Z,2.17
2022-09-15T10:46:13.867Z,1.98
2022-09-15T10:56:21.975Z,2.37
2022-09-15T11:06:32.547Z,2.40
2022-09-15T11:16:53.295Z,2.15
2022-09-15T11:27:17.109Z,2.07
2022-09-15T11:37:24.105Z,1.60
2022-09-15T11:47:25.903Z,2.63
2022-09-15T11:57:36.572Z,1.42
2022-09-15T12:07:50.170Z,1.73
2022-09-15T12:18:37.054Z,1.50
2022-09-15T12:29:04.775Z,1.88
2022-09-15T12:39:24.293Z,1.53
2022-09-15T12:49:36.636Z,1.90
2022-09-15T12:59:38.386Z,1.20
2022-09-15T13:09:57.252Z,2.57
2022-09-15T13:20:07.321Z,1.20
2022-09-15T13:30:24.190Z,0.83
2022-09-15T13:40:44.402Z,1.10
2022-09-15T13:51:13.174Z,1.00
2022-09-15T14:01:17.198Z,1.20
2022-09-15T14:11:26.251Z,1.10
2022-09-15T14:21:33.600Z,1.07
2022-09-15T14:31:41.198Z,1.20
2022-09-15T14:51:46.787Z,0.77
2022-09-15T15:02:19.737Z,0.90
2022-09-15T15:12:29.187Z,0.87
2022-09-15T15:22:30.965Z,0.83
2022-09-15T15:32:34.258Z,1.33
2022-09-15T15:42:36.008Z,1.10
2022-09-15T15:52:37.910Z,0.80
2022-09-15T16:02:39.796Z,0.80
2022-09-15T16:12:41.452Z,0.80
2022-09-15T16:22:43.955Z,0.73
2022-09-15T16:32:45.647Z,0.80
2022-09-15T16:42:48.372Z,0.93
2022-09-15T16:52:50.603Z,0.90
2022-09-15T17:02:52.337Z,1.00
2022-09-15T17:12:54.459Z,1.00
2022-09-15T17:22:57.380Z,0.80
2022-09-15T17:33:06.644Z,1.10
2022-09-15T17:43:16.634Z,0.80
2022-09-15T17:53:28.449Z,1.10
2022-09-15T18:03:34.824Z,0.80
2022-09-15T18:13:37.896Z,0.90
2022-09-15T18:23:42.351Z,1.27
2022-09-15T18:33:45.058Z,0.80
2022-09-15T18:43:49.388Z,1.40
2022-09-15T18:53:54.297Z,1.20
2022-09-15T19:03:57.724Z,0.80
2022-09-15T19:14:00.323Z,1.10
2022-09-15T19:24:02.290Z,1.03
2022-09-15T19:34:04.749Z,1.20
2022-09-15T19:44:09.513Z,1.30
2022-09-15T19:54:12.557Z,1.73
2022-09-15T20:04:15.173Z,1.40
2022-09-15T20:14:16.871Z,0.90
2022-09-15T20:24:20.248Z,1.10
2022-09-15T20:34:22.669Z,0.60
2022-09-15T20:44:24.778Z,0.70
2022-09-15T20:54:26.506Z,0.80
2022-09-15T21:04:28.235Z,0.80
2022-09-15T21:14:30.650Z,0.97
2022-09-15T21:24:32.460Z,3.60
2022-09-15T21:34:34.356Z,0.70
2022-09-15T21:44:36.346Z,0.40
2022-09-15T21:54:38.830Z,0.70
2022-09-15T22:04:41.081Z,0.77
2022-09-15T22:14:42.793Z,0.80
2022-09-15T22:24:48.279Z,1.03
2022-09-15T22:34:50.297Z,0.63
2022-09-15T22:44:52.250Z,0.90
2022-09-15T22:54:53.945Z,0.70
2022-09-15T23:04:55.696Z,1.10
2022-09-15T23:14:57.593Z,1.20
2022-09-15T23:24:59.342Z,0.60
2022-09-15T23:35:00.934Z,0.70
2022-09-15T23:45:02.737Z,1.00
2022-09-15T23:55:04.898Z,0.80
